sensor_id;sensor_type;location;lat;lon;timestamp;P1;durP1;ratioP1;P2;durP2;ratioP2
34872;SDS011;21084;51.098;14.506;2023-02-01T00:01:23;15.95;;;4.07;;
34872;SDS011;21084;51.098;14.506;2023-02-01T00:03:52;10.73;;;3.83;;
34872;SDS011;21084;51.098;14.506;2023-02-01T00:06:21;10.60;;;3.55;;
34872;SDS011;21084;51.098;14.506;2023-02-01T00:08:51;13.45;;;3.40;;
34872;SDS011;21084;51.098;14.506;2023-02-01T00:11:20;17.60;;;4.00;;
34872;SDS011;21084;51.098;14.506;2023-02-01T00:13:50;14.48;;;4.10;;
34872;SDS011;21084;51.098;14.506;2023-02-01T00:16:19;12.77;;;3.90;;
34872;SDS011;21084;51.098;14.506;2023-02-01T00:18:50;13.07;;;3.92;;
34872;SDS011;21084;51.098;14.506;2023-02-01T00:21:20;12.65;;;3.90;;
34872;SDS011;21084;51.098;14.506;2023-02-01T00:23:49;12.68;;;5.18;;
34872;SDS011;21084;51.098;14.506;2023-02-01T00:26:18;12.52;;;4.15;;
34872;SDS011;21084;51.098;14.506;2023-02-01T00:28:50;19.88;;;4.88;;
34872;SDS011;21084;51.098;14.506;2023-02-01T00:31:19;19.40;;;4.35;;
34872;SDS011;21084;51.098;14.506;2023-02-01T00:33:47;16.77;;;4.55;;
34872;SDS011;21084;51.098;14.506;2023-02-01T00:36:16;13.77;;;4.30;;
34872;SDS011;21084;51.098;14.506;2023-02-01T00:38:45;17.30;;;4.10;;
34872;SDS011;21084;51.098;14.506;2023-02-01T00:41:15;12.75;;;4.47;;
34872;SDS011;21084;51.098;14.506;2023-02-01T00:43:45;13.85;;;4.63;;
34872;SDS011;21084;51.098;14.506;2023-02-01T00:46:16;16.77;;;4.50;;
34872;SDS011;21084;51.098;14.506;2023-02-01T00:48:45;23.15;;;4.90;;
34872;SDS011;21084;51.098;14.506;2023-02-01T00:51:15;16.77;;;4.05;;
34872;SDS011;21084;51.098;14.506;2023-02-01T00:53:44;23.58;;;4.85;;
34872;SDS011;21084;51.098;14.506;2023-02-01T00:56:13;16.30;;;3.70;;
34872;SDS011;21084;51.098;14.506;2023-02-01T00:58:42;17.87;;;5.63;;
34872;SDS011;21084;51.098;14.506;2023-02-01T01:03:43;11.50;;;4.43;;
34872;SDS011;21084;51.098;14.506;2023-02-01T01:06:13;12.93;;;3.95;;
34872;SDS011;21084;51.098;14.506;2023-02-01T01:08:43;16.38;;;4.07;;
34872;SDS011;21084;51.098;14.506;2023-02-01T01:11:12;12.95;;;3.78;;
34872;SDS011;21084;51.098;14.506;2023-02-01T01:13:45;25.75;;;4.88;;
34872;SDS011;21084;51.098;14.506;2023-02-01T01:16:14;12.80;;;4.05;;
34872;SDS011;21084;51.098;14.506;2023-02-01T01:18:44;28.15;;;4.50;;
34872;SDS011;21084;51.098;14.506;2023-02-01T01:21:14;19.30;;;3.60;;
34872;SDS011;21084;51.098;14.506;2023-02-01T01:23:43;14.98;;;3.60;;
34872;SDS011;21084;51.098;14.506;2023-02-01T01:26:13;15.13;;;3.90;;
34872;SDS011;21084;51.098;14.506;2023-02-01T01:28:44;15.57;;;3.97;;
34872;SDS011;21084;51.098;14.506;2023-02-01T01:31:13;14.40;;;3.30;;
34872;SDS011;21084;51.098;14.506;2023-02-01T01:33:46;21.95;;;4.00;;
34872;SDS011;21084;51.098;14.506;2023-02-01T01:36:16;12.25;;;4.60;;
34872;SDS011;21084;51.098;14.506;2023-02-01T01:38:44;12.65;;;3.70;;
34872;SDS011;21084;51.098;14.506;2023-02-01T01:41:13;15.77;;;3.72;;
34872;SDS011;21084;51.098;14.506;2023-02-01T01:43:47;19.77;;;4.32;;
34872;SDS011;21084;51.098;14.506;2023-02-01T01:46:17;15.07;;;4.20;;
34872;SDS011;21084;51.098;14.506;2023-02-01T01:48:49;13.60;;;4.00;;
34872;SDS011;21084;51.098;14.506;2023-02-01T01:51:21;16.27;;;4.22;;
34872;SDS011;21084;51.098;14.506;2023-02-01T01:53:54;19.40;;;3.95;;
34872;SDS011;21084;51.098;14.506;2023-02-01T01:56:27;12.18;;;3.88;;
34872;SDS011;21084;51.098;14.506;2023-02-01T01:58:58;14.77;;;3.70;;
34872;SDS011;21084;51.098;14.506;2023-02-01T02:01:28;14.48;;;3.72;;
34872;SDS011;21084;51.098;14.506;2023-02-01T02:03:58;12.73;;;3.20;;
34872;SDS011;21084;51.098;14.506;2023-02-01T02:06:31;13.77;;;3.92;;
34872;SDS011;21084;51.098;14.506;2023-02-01T02:09:06;15.95;;;3.22;;
34872;SDS011;21084;51.098;14.506;2023-02-01T02:11:35;16.13;;;3.47;;
34872;SDS011;21084;51.098;14.506;2023-02-01T02:14:03;12.32;;;3.13;;
34872;SDS011;21084;51.098;14.506;2023-02-01T02:16:40;13.02;;;3.13;;
34872;SDS011;21084;51.098;14.506;2023-02-01T02:22:42;13.70;;;3.40;;
34872;SDS011;21084;51.098;14.506;2023-02-01T02:25:32;20.50;;;3.40;;
34872;SDS011;21084;51.098;14.506;2023-02-01T02:28:37;19.10;;;3.65;;
34872;SDS011;21084;51.098;14.506;2023-02-01T02:31:32;17.15;;;3.30;;
34872;SDS011;21084;51.098;14.506;2023-02-01T02:36:48;18.85;;;3.45;;
34872;SDS011;21084;51.098;14.506;2023-02-01T02:39:27;17.05;;;3.65;;
34872;SDS011;21084;51.098;14.506;2023-02-01T02:42:08;15.73;;;3.30;;
34872;SDS011;21084;51.098;14.506;2023-02-01T02:45:00;12.82;;;3.25;;
34872;SDS011;21084;51.098;14.506;2023-02-01T02:48:08;14.80;;;3.40;;
34872;SDS011;21084;51.098;14.506;2023-02-01T02:50:42;13.55;;;3.50;;
34872;SDS011;21084;51.098;14.506;2023-02-01T02:53:32;12.07;;;3.22;;
34872;SDS011;21084;51.098;14.506;2023-02-01T02:56:37;18.60;;;3.42;;
34872;SDS011;21084;51.098;14.506;2023-02-01T02:59:24;11.05;;;3.38;;
34872;SDS011;21084;51.098;14.506;2023-02-01T03:02:13;16.63;;;3.20;;
34872;SDS011;21084;51.098;14.506;2023-02-01T03:05:00;10.50;;;3.00;;
34872;SDS011;21084;51.098;14.506;2023-02-01T03:10:35;14.13;;;3.13;;
34872;SDS011;21084;51.098;14.506;2023-02-01T03:13:10;18.50;;;3.83;;
34872;SDS011;21084;51.098;14.506;2023-02-01T03:15:43;13.45;;;3.05;;
34872;SDS011;21084;51.098;14.506;2023-02-01T03:18:18;14.85;;;3.00;;
34872;SDS011;21084;51.098;14.506;2023-02-01T03:20:53;15.63;;;3.40;;
34872;SDS011;21084;51.098;14.506;2023-02-01T03:23:27;15.52;;;3.70;;
34872;SDS011;21084;51.098;14.506;2023-02-01T03:25:58;14.27;;;3.20;;
34872;SDS011;21084;51.098;14.506;2023-02-01T03:28:29;19.60;;;3.25;;
34872;SDS011;21084;51.098;14.506;2023-02-01T03:31:00;17.15;;;3.80;;
34872;SDS011;21084;51.098;14.506;2023-02-01T03:33:29;13.43;;;2.50;;
34872;SDS011;21084;51.098;14.506;2023-02-01T03:36:05;11.40;;;3.20;;
34872;SDS011;21084;51.098;14.506;2023-02-01T03:38:45;19.13;;;3.35;;
34872;SDS011;21084;51.098;14.506;2023-02-01T03:41:22;12.20;;;3.33;;
34872;SDS011;21084;51.098;14.506;2023-02-01T03:43:55;18.40;;;3.33;;
34872;SDS011;21084;51.098;14.506;2023-02-01T03:46:30;14.85;;;2.83;;
34872;SDS011;21084;51.098;14.506;2023-02-01T03:49:03;16.08;;;3.53;;
34872;SDS011;21084;51.098;14.506;2023-02-01T03:51:35;13.95;;;3.40;;
34872;SDS011;21084;51.098;14.506;2023-02-01T03:54:09;14.10;;;3.28;;
34872;SDS011;21084;51.098;14.506;2023-02-01T03:56:41;13.38;;;3.17;;
34872;SDS011;21084;51.098;14.506;2023-02-01T03:59:13;12.02;;;3.17;;
34872;SDS011;21084;51.098;14.506;2023-02-01T04:01:41;14.50;;;2.95;;
34872;SDS011;21084;51.098;14.506;2023-02-01T04:04:10;14.73;;;3.30;;
34872;SDS011;21084;51.098;14.506;2023-02-01T04:06:46;12.02;;;3.05;;
34872;SDS011;21084;51.098;14.506;2023-02-01T04:09:16;17.30;;;3.88;;
34872;SDS011;21084;51.098;14.506;2023-02-01T04:11:45;20.70;;;3.55;;
34872;SDS011;21084;51.098;14.506;2023-02-01T04:14:13;16.00;;;3.47;;
34872;SDS011;21084;51.098;14.506;2023-02-01T04:16:42;15.45;;;3.35;;
34872;SDS011;21084;51.098;14.506;2023-02-01T04:19:11;18.60;;;3.53;;
34872;SDS011;21084;51.098;14.506;2023-02-01T04:21:39;14.93;;;3.45;;
34872;SDS011;21084;51.098;14.506;2023-02-01T04:24:08;18.35;;;3.65;;
34872;SDS011;21084;51.098;14.506;2023-02-01T04:26:38;15.63;;;3.65;;
34872;SDS011;21084;51.098;14.506;2023-02-01T04:29:08;18.10;;;3.45;;
34872;SDS011;21084;51.098;14.506;2023-02-01T04:34:05;19.98;;;3.88;;
34872;SDS011;21084;51.098;14.506;2023-02-01T04:36:33;16.25;;;3.47;;
34872;SDS011;21084;51.098;14.506;2023-02-01T04:39:02;17.02;;;3.55;;
34872;SDS011;21084;51.098;14.506;2023-02-01T04:41:30;13.55;;;3.42;;
34872;SDS011;21084;51.098;14.506;2023-02-01T04:44:00;15.75;;;3.85;;
34872;SDS011;21084;51.098;14.506;2023-02-01T04:48:57;17.95;;;3.22;;
34872;SDS011;21084;51.098;14.506;2023-02-01T04:51:25;15.65;;;3.65;;
34872;SDS011;21084;51.098;14.506;2023-02-01T04:53:54;23.58;;;4.30;;
34872;SDS011;21084;51.098;14.506;2023-02-01T04:56:23;23.60;;;3.67;;
34872;SDS011;21084;51.098;14.506;2023-02-01T04:58:51;15.38;;;3.55;;
34872;SDS011;21084;51.098;14.506;2023-02-01T05:01:21;15.95;;;3.30;;
34872;SDS011;21084;51.098;14.506;2023-02-01T05:03:51;15.60;;;3.53;;
34872;SDS011;21084;51.098;14.506;2023-02-01T05:06:19;12.30;;;3.25;;
34872;SDS011;21084;51.098;14.506;2023-02-01T05:08:48;15.98;;;3.30;;
34872;SDS011;21084;51.098;14.506;2023-02-01T05:11:17;25.15;;;3.97;;
34872;SDS011;21084;51.098;14.506;2023-02-01T05:14:03;19.05;;;3.63;;
34872;SDS011;21084;51.098;14.506;2023-02-01T05:16:33;12.52;;;3.30;;
34872;SDS011;21084;51.098;14.506;2023-02-01T05:21:29;16.88;;;3.67;;
34872;SDS011;21084;51.098;14.506;2023-02-01T05:23:58;18.80;;;4.13;;
34872;SDS011;21084;51.098;14.506;2023-02-01T05:26:39;17.42;;;4.03;;
34872;SDS011;21084;51.098;14.506;2023-02-01T05:29:08;22.93;;;4.30;;
34872;SDS011;21084;51.098;14.506;2023-02-01T05:31:40;17.63;;;4.10;;
34872;SDS011;21084;51.098;14.506;2023-02-01T05:34:09;25.95;;;3.63;;
34872;SDS011;21084;51.098;14.506;2023-02-01T05:36:37;19.15;;;3.88;;
34872;SDS011;21084;51.098;14.506;2023-02-01T05:39:06;24.08;;;4.93;;
34872;SDS011;21084;51.098;14.506;2023-02-01T05:41:34;12.73;;;3.00;;
34872;SDS011;21084;51.098;14.506;2023-02-01T05:44:03;17.90;;;3.85;;
34872;SDS011;21084;51.098;14.506;2023-02-01T05:46:33;14.68;;;3.50;;
34872;SDS011;21084;51.098;14.506;2023-02-01T05:49:03;20.02;;;3.95;;
34872;SDS011;21084;51.098;14.506;2023-02-01T05:51:32;23.33;;;4.85;;
34872;SDS011;21084;51.098;14.506;2023-02-01T05:54:01;23.33;;;4.20;;
34872;SDS011;21084;51.098;14.506;2023-02-01T05:56:29;17.65;;;4.00;;
34872;SDS011;21084;51.098;14.506;2023-02-01T05:58:58;17.45;;;3.85;;
34872;SDS011;21084;51.098;14.506;2023-02-01T06:01:26;16.48;;;3.35;;
34872;SDS011;21084;51.098;14.506;2023-02-01T06:03:54;25.65;;;5.38;;
34872;SDS011;21084;51.098;14.506;2023-02-01T06:06:24;18.95;;;4.25;;
34872;SDS011;21084;51.098;14.506;2023-02-01T06:11:21;24.77;;;4.65;;
34872;SDS011;21084;51.098;14.506;2023-02-01T06:13:58;21.88;;;4.53;;
34872;SDS011;21084;51.098;14.506;2023-02-01T06:16:27;22.70;;;4.27;;
34872;SDS011;21084;51.098;14.506;2023-02-01T06:18:56;16.77;;;3.58;;
34872;SDS011;21084;51.098;14.506;2023-02-01T06:21:26;28.30;;;4.40;;
34872;SDS011;21084;51.098;14.506;2023-02-01T06:26:24;15.75;;;3.35;;
34872;SDS011;21084;51.098;14.506;2023-02-01T06:28:55;17.27;;;4.30;;
34872;SDS011;21084;51.098;14.506;2023-02-01T06:31:24;21.02;;;4.50;;
34872;SDS011;21084;51.098;14.506;2023-02-01T06:33:53;26.73;;;4.55;;
34872;SDS011;21084;51.098;14.506;2023-02-01T06:36:21;18.50;;;4.65;;
34872;SDS011;21084;51.098;14.506;2023-02-01T06:38:51;30.05;;;6.43;;
34872;SDS011;21084;51.098;14.506;2023-02-01T06:41:20;26.73;;;7.50;;
34872;SDS011;21084;51.098;14.506;2023-02-01T06:43:49;17.15;;;4.32;;
34872;SDS011;21084;51.098;14.506;2023-02-01T06:46:17;28.48;;;5.20;;
34872;SDS011;21084;51.098;14.506;2023-02-01T06:48:46;24.27;;;4.50;;
34872;SDS011;21084;51.098;14.506;2023-02-01T06:51:18;34.72;;;5.80;;
34872;SDS011;21084;51.098;14.506;2023-02-01T06:53:48;21.05;;;6.07;;
34872;SDS011;21084;51.098;14.506;2023-02-01T06:56:18;23.70;;;5.55;;
34872;SDS011;21084;51.098;14.506;2023-02-01T06:58:50;26.27;;;6.57;;
34872;SDS011;21084;51.098;14.506;2023-02-01T07:01:18;27.63;;;5.90;;
34872;SDS011;21084;51.098;14.506;2023-02-01T07:03:47;32.25;;;6.38;;
34872;SDS011;21084;51.098;14.506;2023-02-01T07:06:17;28.40;;;6.90;;
34872;SDS011;21084;51.098;14.506;2023-02-01T07:08:46;26.10;;;6.10;;
34872;SDS011;21084;51.098;14.506;2023-02-01T07:11:15;27.02;;;6.20;;
34872;SDS011;21084;51.098;14.506;2023-02-01T07:13:46;30.05;;;7.05;;
34872;SDS011;21084;51.098;14.506;2023-02-01T07:16:17;40.17;;;6.30;;
34872;SDS011;21084;51.098;14.506;2023-02-01T07:18:46;46.95;;;14.60;;
34872;SDS011;21084;51.098;14.506;2023-02-01T07:21:16;25.25;;;6.13;;
34872;SDS011;21084;51.098;14.506;2023-02-01T07:23:44;28.08;;;6.88;;
34872;SDS011;21084;51.098;14.506;2023-02-01T07:26:13;25.63;;;7.00;;
34872;SDS011;21084;51.098;14.506;2023-02-01T07:28:43;34.22;;;7.15;;
34872;SDS011;21084;51.098;14.506;2023-02-01T07:31:13;29.90;;;6.30;;
34872;SDS011;21084;51.098;14.506;2023-02-01T07:33:45;31.73;;;6.13;;
34872;SDS011;21084;51.098;14.506;2023-02-01T07:36:14;36.15;;;6.82;;
34872;SDS011;21084;51.098;14.506;2023-02-01T07:41:13;27.20;;;6.15;;
34872;SDS011;21084;51.098;14.506;2023-02-01T07:43:43;30.80;;;7.07;;
34872;SDS011;21084;51.098;14.506;2023-02-01T07:46:14;27.25;;;6.47;;
34872;SDS011;21084;51.098;14.506;2023-02-01T07:48:43;29.08;;;6.72;;
34872;SDS011;21084;51.098;14.506;2023-02-01T07:51:12;26.42;;;6.95;;
34872;SDS011;21084;51.098;14.506;2023-02-01T07:53:42;28.70;;;6.03;;
34872;SDS011;21084;51.098;14.506;2023-02-01T07:56:12;27.98;;;6.78;;
34872;SDS011;21084;51.098;14.506;2023-02-01T07:58:41;31.85;;;5.90;;
34872;SDS011;21084;51.098;14.506;2023-02-01T08:01:14;27.07;;;6.30;;
34872;SDS011;21084;51.098;14.506;2023-02-01T08:03:51;29.95;;;6.30;;
34872;SDS011;21084;51.098;14.506;2023-02-01T08:06:22;27.95;;;6.75;;
34872;SDS011;21084;51.098;14.506;2023-02-01T08:08:51;24.75;;;6.22;;
34872;SDS011;21084;51.098;14.506;2023-02-01T08:11:21;21.67;;;6.57;;
34872;SDS011;21084;51.098;14.506;2023-02-01T08:13:50;20.52;;;6.07;;
34872;SDS011;21084;51.098;14.506;2023-02-01T08:16:22;19.98;;;6.03;;
34872;SDS011;21084;51.098;14.506;2023-02-01T08:18:51;33.58;;;7.07;;
34872;SDS011;21084;51.098;14.506;2023-02-01T08:21:21;15.65;;;6.22;;
34872;SDS011;21084;51.098;14.506;2023-02-01T08:23:51;26.15;;;6.18;;
34872;SDS011;21084;51.098;14.506;2023-02-01T08:26:20;30.87;;;8.97;;
34872;SDS011;21084;51.098;14.506;2023-02-01T08:28:51;25.33;;;6.90;;
34872;SDS011;21084;51.098;14.506;2023-02-01T08:31:23;24.17;;;6.40;;
34872;SDS011;21084;51.098;14.506;2023-02-01T08:33:53;37.83;;;6.78;;
34872;SDS011;21084;51.098;14.506;2023-02-01T08:36:24;33.00;;;7.53;;
34872;SDS011;21084;51.098;14.506;2023-02-01T08:38:54;28.88;;;7.00;;
34872;SDS011;21084;51.098;14.506;2023-02-01T08:41:24;28.42;;;6.18;;
34872;SDS011;21084;51.098;14.506;2023-02-01T08:43:53;29.95;;;6.50;;
34872;SDS011;21084;51.098;14.506;2023-02-01T08:46:24;27.27;;;6.25;;
34872;SDS011;21084;51.098;14.506;2023-02-01T08:48:53;16.92;;;6.10;;
34872;SDS011;21084;51.098;14.506;2023-02-01T08:51:22;26.80;;;5.70;;
34872;SDS011;21084;51.098;14.506;2023-02-01T08:53:51;29.15;;;5.88;;
34872;SDS011;21084;51.098;14.506;2023-02-01T08:56:20;20.83;;;6.07;;
34872;SDS011;21084;51.098;14.506;2023-02-01T08:58:48;13.88;;;5.50;;
34872;SDS011;21084;51.098;14.506;2023-02-01T09:01:17;23.60;;;6.32;;
34872;SDS011;21084;51.098;14.506;2023-02-01T09:03:47;23.80;;;5.47;;
34872;SDS011;21084;51.098;14.506;2023-02-01T09:06:16;21.92;;;5.55;;
34872;SDS011;21084;51.098;14.506;2023-02-01T09:08:44;19.27;;;5.18;;
34872;SDS011;21084;51.098;14.506;2023-02-01T09:11:14;22.08;;;5.28;;
34872;SDS011;21084;51.098;14.506;2023-02-01T09:13:44;29.45;;;5.90;;
34872;SDS011;21084;51.098;14.506;2023-02-01T09:16:13;22.23;;;6.68;;
34872;SDS011;21084;51.098;14.506;2023-02-01T09:18:42;20.35;;;5.20;;
34872;SDS011;21084;51.098;14.506;2023-02-01T09:21:32;25.73;;;5.60;;
34872;SDS011;21084;51.098;14.506;2023-02-01T09:24:01;21.40;;;5.90;;
34872;SDS011;21084;51.098;14.506;2023-02-01T09:26:30;31.92;;;6.05;;
34872;SDS011;21084;51.098;14.506;2023-02-01T09:28:59;24.42;;;6.25;;
34872;SDS011;21084;51.098;14.506;2023-02-01T09:31:28;20.00;;;5.32;;
34872;SDS011;21084;51.098;14.506;2023-02-01T09:33:57;21.50;;;5.73;;
34872;SDS011;21084;51.098;14.506;2023-02-01T09:36:26;26.02;;;5.90;;
34872;SDS011;21084;51.098;14.506;2023-02-01T09:38:58;19.05;;;5.13;;
34872;SDS011;21084;51.098;14.506;2023-02-01T09:41:32;20.30;;;5.50;;
34872;SDS011;21084;51.098;14.506;2023-02-01T09:44:14;23.42;;;4.78;;
34872;SDS011;21084;51.098;14.506;2023-02-01T09:47:04;17.55;;;5.30;;
34872;SDS011;21084;51.098;14.506;2023-02-01T09:49:44;12.90;;;4.63;;
34872;SDS011;21084;51.098;14.506;2023-02-01T09:52:20;22.52;;;4.68;;
34872;SDS011;21084;51.098;14.506;2023-02-01T09:54:57;18.15;;;4.63;;
34872;SDS011;21084;51.098;14.506;2023-02-01T09:57:33;19.20;;;5.78;;
34872;SDS011;21084;51.098;14.506;2023-02-01T10:00:14;18.80;;;5.82;;
34872;SDS011;21084;51.098;14.506;2023-02-01T10:02:49;20.92;;;4.75;;
34872;SDS011;21084;51.098;14.506;2023-02-01T10:07:55;25.40;;;5.28;;
34872;SDS011;21084;51.098;14.506;2023-02-01T10:10:34;20.38;;;4.65;;
34872;SDS011;21084;51.098;14.506;2023-02-01T10:13:17;17.63;;;4.55;;
34872;SDS011;21084;51.098;14.506;2023-02-01T10:16:02;10.90;;;4.20;;
34872;SDS011;21084;51.098;14.506;2023-02-01T10:18:43;16.38;;;4.20;;
34872;SDS011;21084;51.098;14.506;2023-02-01T10:21:27;15.93;;;4.20;;
34872;SDS011;21084;51.098;14.506;2023-02-01T10:26:59;13.20;;;4.28;;
34872;SDS011;21084;51.098;14.506;2023-02-01T10:29:32;10.75;;;4.57;;
34872;SDS011;21084;51.098;14.506;2023-02-01T10:32:08;13.20;;;4.35;;
34872;SDS011;21084;51.098;14.506;2023-02-01T10:34:41;13.30;;;3.95;;
34872;SDS011;21084;51.098;14.506;2023-02-01T10:37:13;11.48;;;4.55;;
34872;SDS011;21084;51.098;14.506;2023-02-01T10:39:52;8.93;;;4.40;;
34872;SDS011;21084;51.098;14.506;2023-02-01T10:42:26;12.00;;;3.85;;
34872;SDS011;21084;51.098;14.506;2023-02-01T10:44:57;19.13;;;4.80;;
34872;SDS011;21084;51.098;14.506;2023-02-01T10:47:27;12.85;;;4.13;;
34872;SDS011;21084;51.098;14.506;2023-02-01T10:49:58;13.65;;;4.50;;
34872;SDS011;21084;51.098;14.506;2023-02-01T10:52:42;16.08;;;4.57;;
34872;SDS011;21084;51.098;14.506;2023-02-01T10:55:30;15.38;;;5.00;;
34872;SDS011;21084;51.098;14.506;2023-02-01T10:58:04;17.80;;;6.43;;
34872;SDS011;21084;51.098;14.506;2023-02-01T11:00:40;8.82;;;4.57;;
34872;SDS011;21084;51.098;14.506;2023-02-01T11:06:10;12.25;;;4.93;;
34872;SDS011;21084;51.098;14.506;2023-02-01T11:08:45;12.55;;;4.72;;
34872;SDS011;21084;51.098;14.506;2023-02-01T11:11:15;14.88;;;4.53;;
34872;SDS011;21084;51.098;14.506;2023-02-01T11:13:52;6.75;;;4.13;;
34872;SDS011;21084;51.098;14.506;2023-02-01T11:16:28;15.02;;;4.80;;
34872;SDS011;21084;51.098;14.506;2023-02-01T11:19:00;10.35;;;4.60;;
34872;SDS011;21084;51.098;14.506;2023-02-01T11:21:29;17.23;;;4.97;;
34872;SDS011;21084;51.098;14.506;2023-02-01T11:24:00;9.37;;;4.77;;
34872;SDS011;21084;51.098;14.506;2023-02-01T11:26:31;11.90;;;5.57;;
34872;SDS011;21084;51.098;14.506;2023-02-01T11:29:03;18.65;;;5.85;;
34872;SDS011;21084;51.098;14.506;2023-02-01T11:31:36;19.75;;;5.40;;
34872;SDS011;21084;51.098;14.506;2023-02-01T11:34:07;15.60;;;5.50;;
34872;SDS011;21084;51.098;14.506;2023-02-01T11:36:39;11.90;;;5.00;;
34872;SDS011;21084;51.098;14.506;2023-02-01T11:39:17;14.15;;;4.85;;
34872;SDS011;21084;51.098;14.506;2023-02-01T11:41:55;22.33;;;6.10;;
34872;SDS011;21084;51.098;14.506;2023-02-01T11:44:31;16.77;;;5.45;;
34872;SDS011;21084;51.098;14.506;2023-02-01T11:49:55;13.10;;;4.82;;
34872;SDS011;21084;51.098;14.506;2023-02-01T11:52:32;24.13;;;6.63;;
34872;SDS011;21084;51.098;14.506;2023-02-01T11:55:21;17.42;;;5.30;;
34872;SDS011;21084;51.098;14.506;2023-02-01T11:58:06;14.93;;;4.97;;
34872;SDS011;21084;51.098;14.506;2023-02-01T12:00:51;13.20;;;4.40;;
34872;SDS011;21084;51.098;14.506;2023-02-01T12:06:35;15.52;;;4.07;;
34872;SDS011;21084;51.098;14.506;2023-02-01T12:12:19;17.30;;;4.28;;
34872;SDS011;21084;51.098;14.506;2023-02-01T12:14:59;13.95;;;4.63;;
34872;SDS011;21084;51.098;14.506;2023-02-01T12:17:48;15.98;;;4.85;;
34872;SDS011;21084;51.098;14.506;2023-02-01T12:20:48;17.98;;;5.38;;
34872;SDS011;21084;51.098;14.506;2023-02-01T12:23:31;18.73;;;5.35;;
34872;SDS011;21084;51.098;14.506;2023-02-01T12:26:27;24.27;;;6.63;;
34872;SDS011;21084;51.098;14.506;2023-02-01T12:29:19;15.73;;;5.15;;
34872;SDS011;21084;51.098;14.506;2023-02-01T12:32:06;16.52;;;5.18;;
34872;SDS011;21084;51.098;14.506;2023-02-01T12:34:49;11.55;;;5.10;;
34872;SDS011;21084;51.098;14.506;2023-02-01T12:38:06;30.70;;;6.40;;
34872;SDS011;21084;51.098;14.506;2023-02-01T12:40:49;13.40;;;5.78;;
34872;SDS011;21084;51.098;14.506;2023-02-01T12:43:31;15.93;;;5.80;;
34872;SDS011;21084;51.098;14.506;2023-02-01T12:46:07;20.52;;;6.60;;
34872;SDS011;21084;51.098;14.506;2023-02-01T12:48:41;21.45;;;6.65;;
34872;SDS011;21084;51.098;14.506;2023-02-01T12:51:21;16.10;;;5.50;;
34872;SDS011;21084;51.098;14.506;2023-02-01T12:53:55;13.32;;;5.40;;
34872;SDS011;21084;51.098;14.506;2023-02-01T12:56:29;11.40;;;4.57;;
34872;SDS011;21084;51.098;14.506;2023-02-01T12:59:02;16.52;;;5.07;;
34872;SDS011;21084;51.098;14.506;2023-02-01T13:01:34;16.10;;;5.38;;
34872;SDS011;21084;51.098;14.506;2023-02-01T13:04:08;16.13;;;5.90;;
34872;SDS011;21084;51.098;14.506;2023-02-01T13:06:46;15.45;;;5.97;;
34872;SDS011;21084;51.098;14.506;2023-02-01T13:09:21;16.98;;;7.25;;
34872;SDS011;21084;51.098;14.506;2023-02-01T13:11:53;17.35;;;7.80;;
34872;SDS011;21084;51.098;14.506;2023-02-01T13:14:27;12.95;;;6.05;;
34872;SDS011;21084;51.098;14.506;2023-02-01T13:17:04;11.50;;;5.13;;
34872;SDS011;21084;51.098;14.506;2023-02-01T13:19:41;14.57;;;5.75;;
34872;SDS011;21084;51.098;14.506;2023-02-01T13:22:15;18.30;;;6.63;;
34872;SDS011;21084;51.098;14.506;2023-02-01T13:24:48;15.68;;;6.07;;
34872;SDS011;21084;51.098;14.506;2023-02-01T13:27:20;14.30;;;5.22;;
34872;SDS011;21084;51.098;14.506;2023-02-01T13:29:53;15.48;;;5.10;;
34872;SDS011;21084;51.098;14.506;2023-02-01T13:32:28;15.45;;;5.63;;
34872;SDS011;21084;51.098;14.506;2023-02-01T13:35:43;21.20;;;5.80;;
34872;SDS011;21084;51.098;14.506;2023-02-01T13:41:35;20.13;;;6.18;;
34872;SDS011;21084;51.098;14.506;2023-02-01T13:44:11;17.13;;;5.30;;
34872;SDS011;21084;51.098;14.506;2023-02-01T13:46:43;14.98;;;4.95;;
34872;SDS011;21084;51.098;14.506;2023-02-01T13:49:17;23.35;;;5.80;;
34872;SDS011;21084;51.098;14.506;2023-02-01T13:51:50;14.55;;;5.25;;
34872;SDS011;21084;51.098;14.506;2023-02-01T13:54:32;14.60;;;5.07;;
34872;SDS011;21084;51.098;14.506;2023-02-01T13:57:03;17.55;;;4.63;;
34872;SDS011;21084;51.098;14.506;2023-02-01T13:59:44;12.80;;;5.38;;
34872;SDS011;21084;51.098;14.506;2023-02-01T14:06:02;18.90;;;4.63;;
34872;SDS011;21084;51.098;14.506;2023-02-01T14:08:43;21.17;;;5.18;;
34872;SDS011;21084;51.098;14.506;2023-02-01T14:23:14;24.05;;;9.57;;
34872;SDS011;21084;51.098;14.506;2023-02-01T14:26:02;14.90;;;4.43;;
34872;SDS011;21084;51.098;14.506;2023-02-01T14:28:35;15.85;;;5.00;;
34872;SDS011;21084;51.098;14.506;2023-02-01T14:31:16;15.15;;;4.38;;
34872;SDS011;21084;51.098;14.506;2023-02-01T14:33:59;18.95;;;7.25;;
34872;SDS011;21084;51.098;14.506;2023-02-01T14:36:39;26.23;;;8.27;;
34872;SDS011;21084;51.098;14.506;2023-02-01T14:39:21;33.70;;;13.40;;
34872;SDS011;21084;51.098;14.506;2023-02-01T14:41:56;16.33;;;5.43;;
34872;SDS011;21084;51.098;14.506;2023-02-01T14:44:29;24.85;;;8.10;;
34872;SDS011;21084;51.098;14.506;2023-02-01T14:47:26;19.08;;;6.47;;
34872;SDS011;21084;51.098;14.506;2023-02-01T14:53:17;13.15;;;3.42;;
34872;SDS011;21084;51.098;14.506;2023-02-01T14:55:52;12.13;;;4.00;;
34872;SDS011;21084;51.098;14.506;2023-02-01T14:58:29;20.00;;;4.07;;
34872;SDS011;21084;51.098;14.506;2023-02-01T15:01:04;13.32;;;4.95;;
34872;SDS011;21084;51.098;14.506;2023-02-01T15:03:36;26.40;;;5.22;;
34872;SDS011;21084;51.098;14.506;2023-02-01T15:06:19;14.43;;;4.57;;
34872;SDS011;21084;51.098;14.506;2023-02-01T15:08:53;14.38;;;4.30;;
34872;SDS011;21084;51.098;14.506;2023-02-01T15:11:24;19.23;;;5.10;;
34872;SDS011;21084;51.098;14.506;2023-02-01T15:13:53;17.73;;;5.78;;
34872;SDS011;21084;51.098;14.506;2023-02-01T15:16:24;18.90;;;4.40;;
34872;SDS011;21084;51.098;14.506;2023-02-01T15:19:10;16.30;;;4.60;;
34872;SDS011;21084;51.098;14.506;2023-02-01T15:21:42;18.23;;;4.25;;
34872;SDS011;21084;51.098;14.506;2023-02-01T15:24:13;13.77;;;4.10;;
34872;SDS011;21084;51.098;14.506;2023-02-01T15:26:46;9.23;;;4.03;;
34872;SDS011;21084;51.098;14.506;2023-02-01T15:29:15;15.23;;;3.78;;
34872;SDS011;21084;51.098;14.506;2023-02-01T15:31:45;20.02;;;4.65;;
34872;SDS011;21084;51.098;14.506;2023-02-01T15:34:17;14.10;;;3.72;;
34872;SDS011;21084;51.098;14.506;2023-02-01T15:36:46;9.65;;;4.68;;
34872;SDS011;21084;51.098;14.506;2023-02-01T15:39:28;17.38;;;4.20;;
34872;SDS011;21084;51.098;14.506;2023-02-01T15:41:59;14.35;;;4.68;;
34872;SDS011;21084;51.098;14.506;2023-02-01T15:44:37;15.07;;;4.32;;
34872;SDS011;21084;51.098;14.506;2023-02-01T15:47:12;13.52;;;3.75;;
34872;SDS011;21084;51.098;14.506;2023-02-01T15:49:45;13.70;;;4.75;;
34872;SDS011;21084;51.098;14.506;2023-02-01T15:52:21;8.60;;;3.85;;
34872;SDS011;21084;51.098;14.506;2023-02-01T15:54:53;19.67;;;6.15;;
34872;SDS011;21084;51.098;14.506;2023-02-01T15:57:25;16.35;;;5.03;;
34872;SDS011;21084;51.098;14.506;2023-02-01T15:59:58;19.20;;;5.47;;
34872;SDS011;21084;51.098;14.506;2023-02-01T16:02:33;17.10;;;5.63;;
34872;SDS011;21084;51.098;14.506;2023-02-01T16:05:25;24.35;;;6.60;;